Time;durP1;ratioP1;P1;durP2;ratioP2;P2;SDS_P1;SDS_P2;PMS_P1;PMS_P2;Temp;Humidity;BMP_temperature;BMP_pressure;BME280_temperature;BME280_humidity;BME280_pressure;Samples;Min_cycle;Max_cycle;Signal;HPM_P1;HPM_P2
2022/04/15 00:02:24;;;;;;;;;;;;;;;16.11;100.00;99645.31;5065127;28;20981;-47
2022/04/15 00:04:49;;;;;;;;;;;;;;;15.95;100.00;99644.28;5064124;28;19927;-46
2022/04/15 00:07:14;;;;;;;;;;;;;;;15.97;100.00;99650.28;5064918;28;19920;-47
2022/04/15 00:09:40;;;;;;;;;;;;;;;16.06;100.00;99647.25;5060975;28;19942;-46
2022/04/15 00:12:10;;;;;;;;;;;;;;;15.83;100.00;99643.06;5062657;28;19924;-46
2022/04/15 00:14:35;;;;;;;;;;;;;;;15.37;100.00;99658.81;5065606;28;19916;-46
2022/04/15 00:17:00;;;;;;;;;;;;;;;14.96;100.00;99653.53;5064494;28;20448;-47
2022/04/15 00:19:26;;;;;;;;;;;;;;;14.73;100.00;99662.19;5063346;28;20005;-49
2022/04/15 00:21:51;;;;;;;;;;;;;;;14.62;100.00;99654.84;5062349;28;20910;-45
2022/04/15 00:24:16;;;;;;;;;;;;;;;14.81;100.00;99659.31;5063584;28;20036;-45
2022/04/15 00:26:42;;;;;;;;;;;;;;;14.72;100.00;99664.88;5064106;28;19927;-45
2022/04/15 00:29:07;;;;;;;;;;;;;;;14.51;100.00;99661.31;5062276;28;19977;-46
2022/04/15 00:31:33;;;;;;;;;;;;;;;14.75;100.00;99660.38;5063539;28;19920;-46
2022/04/15 00:33:58;;;;;;;;;;;;;;;14.83;100.00;99665.28;5062896;28;19920;-47
2022/04/15 00:36:23;;;;;;;;;;;;;;;14.78;100.00;99670.66;5062189;28;20046;-45
2022/04/15 00:38:49;;;;;;;;;;;;;;;15.01;100.00;99661.97;5064038;28;19960;-46
2022/04/15 00:41:15;;;;;;;;;;;;;;;14.85;100.00;99666.91;5064567;28;20349;-48
2022/04/15 00:43:40;;;;;;;;;;;;;;;15.00;100.00;99669.81;5064389;28;20386;-46
2022/04/15 00:46:06;;;;;;;;;;;;;;;15.13;100.00;99675.38;5063755;28;19920;-45
2022/04/15 00:48:32;;;;;;;;;;;;;;;14.87;100.00;99672.06;5061723;28;19928;-47
2022/04/15 00:50:57;;;;;;;;;;;;;;;14.82;100.00;99668.78;5062776;28;19920;-48
2022/04/15 00:53:23;;;;;;;;;;;;;;;14.76;100.00;99675.06;5062542;28;20007;-46
2022/04/15 00:55:48;;;;;;;;;;;;;;;14.69;100.00;99676.19;5063663;28;20015;-47
2022/04/15 00:58:13;;;;;;;;;;;;;;;14.92;100.00;99677.06;5064236;28;19920;-45
2022/04/15 01:00:38;;;;;;;;;;;;;;;14.88;100.00;99678.91;5058466;28;20551;-46
2022/04/15 01:03:04;;;;;;;;;;;;;;;14.63;100.00;99676.41;5062702;28;20410;-46
2022/04/15 01:05:30;;;;;;;;;;;;;;;14.51;100.00;99677.69;5060760;28;19920;-45
2022/04/15 01:07:55;;;;;;;;;;;;;;;14.69;100.00;99685.69;5064158;28;19924;-46
2022/04/15 01:10:21;;;;;;;;;;;;;;;14.90;100.00;99678.88;5062250;28;19970;-46
2022/04/15 01:12:48;;;;;;;;;;;;;;;14.59;100.00;99675.69;5062157;28;20362;-45
2022/04/15 01:15:14;;;;;;;;;;;;;;;14.32;100.00;99676.66;5061639;28;21549;-45
2022/04/15 01:17:39;;;;;;;;;;;;;;;14.25;100.00;99691.59;5064722;28;19922;-46
2022/04/15 01:20:05;;;;;;;;;;;;;;;14.41;100.00;99684.09;5061628;28;19928;-46
2022/04/15 01:22:41;;;;;;;;;;;;;;;15.19;100.00;99685.47;5062665;28;20014;-45
2022/04/15 01:25:06;;;;;;;;;;;;;;;14.29;100.00;99688.00;5064261;28;19927;-45
2022/04/15 01:27:32;;;;;;;;;;;;;;;14.44;100.00;99681.44;5063718;28;19960;-45
2022/04/15 01:29:58;;;;;;;;;;;;;;;14.74;100.00;99683.81;5064244;28;21124;-47
2022/04/15 01:32:23;;;;;;;;;;;;;;;14.68;100.00;99689.22;5065025;28;20315;-47
2022/04/15 01:34:48;;;;;;;;;;;;;;;14.64;100.00;99689.34;5063340;28;20354;-50
2022/04/15 01:37:14;;;;;;;;;;;;;;;14.69;100.00;99686.56;5062756;28;19959;-49
2022/04/15 01:39:39;;;;;;;;;;;;;;;14.91;100.00;99690.91;5062107;28;19963;-49
2022/04/15 01:42:05;;;;;;;;;;;;;;;14.74;100.00;99695.00;5043919;28;20440;-46
2022/04/15 01:44:30;;;;;;;;;;;;;;;14.30;100.00;99700.06;5065378;28;20103;-49
2022/04/15 01:46:55;;;;;;;;;;;;;;;14.15;100.00;99701.44;5063192;28;20589;-45
2022/04/15 01:49:20;;;;;;;;;;;;;;;13.72;100.00;99699.50;5063267;28;19982;-46
2022/04/15 01:51:46;;;;;;;;;;;;;;;13.37;100.00;99704.94;5061885;28;19924;-46
2022/04/15 01:54:11;;;;;;;;;;;;;;;13.43;100.00;99705.63;5060366;28;19921;-46
2022/04/15 01:56:36;;;;;;;;;;;;;;;13.55;100.00;99710.44;5063333;28;19928;-46
2022/04/15 01:59:01;;;;;;;;;;;;;;;13.94;100.00;99712.56;5060721;28;19931;-46
2022/04/15 02:01:27;;;;;;;;;;;;;;;13.79;100.00;99712.16;5061844;28;19982;-47
2022/04/15 02:03:52;;;;;;;;;;;;;;;13.74;100.00;99716.66;5061577;28;20390;-48
2022/04/15 02:06:17;;;;;;;;;;;;;;;13.60;100.00;99713.69;5063624;28;19920;-46
2022/04/15 02:08:42;;;;;;;;;;;;;;;13.32;100.00;99713.72;5064107;28;19927;-47
2022/04/15 02:11:07;;;;;;;;;;;;;;;13.41;100.00;99712.59;5058487;28;19923;-46
2022/04/15 02:13:33;;;;;;;;;;;;;;;13.36;100.00;99711.03;5058590;28;19951;-46
2022/04/15 02:15:58;;;;;;;;;;;;;;;13.46;100.00;99713.31;5060477;28;19998;-47
2022/04/15 02:18:26;;;;;;;;;;;;;;;13.47;100.00;99717.56;5063114;28;19923;-46
2022/04/15 02:20:51;;;;;;;;;;;;;;;13.06;100.00;99706.75;5059845;28;19930;-47
2022/04/15 02:23:16;;;;;;;;;;;;;;;13.55;100.00;99707.84;5059773;28;19928;-46
2022/04/15 02:25:42;;;;;;;;;;;;;;;13.72;100.00;99718.47;5056570;28;19920;-46
2022/04/15 02:28:07;;;;;;;;;;;;;;;13.51;100.00;99721.75;5062485;28;19927;-46
2022/04/15 02:30:32;;;;;;;;;;;;;;;13.81;100.00;99715.56;5059733;28;19970;-48
2022/04/15 02:32:57;;;;;;;;;;;;;;;14.07;100.00;99716.44;5059366;28;19954;-45
2022/04/15 02:35:22;;;;;;;;;;;;;;;14.47;100.00;99721.94;5061897;28;20007;-48
2022/04/15 02:37:48;;;;;;;;;;;;;;;14.23;100.00;99721.88;5045562;28;20011;-46
2022/04/15 02:40:13;;;;;;;;;;;;;;;13.99;100.00;99715.84;5062455;28;20015;-45
2022/04/15 02:42:38;;;;;;;;;;;;;;;13.80;100.00;99721.66;5058482;28;19928;-47
2022/04/15 02:45:04;;;;;;;;;;;;;;;13.64;100.00;99719.59;5063055;28;19942;-46
2022/04/15 02:47:29;;;;;;;;;;;;;;;13.54;100.00;99717.31;5063251;28;19927;-46
2022/04/15 02:49:54;;;;;;;;;;;;;;;13.37;100.00;99723.03;5060877;28;20567;-48
2022/04/15 02:52:20;;;;;;;;;;;;;;;13.30;100.00;99721.56;5058291;28;19920;-46
2022/04/15 02:54:45;;;;;;;;;;;;;;;13.38;100.00;99719.56;5060367;28;19920;-46
2022/04/15 02:57:10;;;;;;;;;;;;;;;13.34;100.00;99712.81;5059854;28;20463;-45
2022/04/15 02:59:35;;;;;;;;;;;;;;;13.46;100.00;99721.06;5062459;28;19936;-45
2022/04/15 03:02:01;;;;;;;;;;;;;;;13.07;100.00;99721.38;5059173;28;19976;-47
2022/04/15 03:04:26;;;;;;;;;;;;;;;13.01;100.00;99719.00;5062083;28;19920;-47
2022/04/15 03:06:51;;;;;;;;;;;;;;;12.80;100.00;99721.34;5060387;28;20003;-47
2022/04/15 03:09:16;;;;;;;;;;;;;;;12.79;100.00;99719.63;5058195;28;19959;-45
2022/04/15 03:11:42;;;;;;;;;;;;;;;13.16;100.00;99723.69;5059783;28;19928;-45
2022/04/15 03:14:07;;;;;;;;;;;;;;;13.12;100.00;99716.94;5067299;28;19923;-49
2022/04/15 03:16:33;;;;;;;;;;;;;;;12.96;100.00;99724.31;5061854;28;19928;-50
2022/04/15 03:18:58;;;;;;;;;;;;;;;12.90;100.00;99727.06;5059807;28;19921;-45
2022/04/15 03:21:24;;;;;;;;;;;;;;;12.84;100.00;99728.09;5060803;28;19984;-47
2022/04/15 03:23:49;;;;;;;;;;;;;;;12.59;100.00;99729.69;5061510;28;20007;-46
2022/04/15 03:26:14;;;;;;;;;;;;;;;12.45;100.00;99728.38;5065021;28;19927;-45
2022/04/15 03:28:39;;;;;;;;;;;;;;;12.80;100.00;99726.50;5065279;28;20555;-45
2022/04/15 03:31:05;;;;;;;;;;;;;;;13.07;100.00;99724.81;5065033;28;20379;-48
2022/04/15 03:33:31;;;;;;;;;;;;;;;13.05;100.00;99730.94;5062806;28;19924;-46
2022/04/15 03:35:56;;;;;;;;;;;;;;;13.43;100.00;99729.75;5066111;28;19931;-48
2022/04/15 03:38:21;;;;;;;;;;;;;;;12.93;100.00;99735.59;5066713;28;20500;-46
2022/04/15 03:40:46;;;;;;;;;;;;;;;12.78;100.00;99738.63;5066163;28;19963;-47
2022/04/15 03:43:12;;;;;;;;;;;;;;;12.41;100.00;99729.34;5064470;28;19921;-45
2022/04/15 03:45:37;;;;;;;;;;;;;;;12.26;100.00;99734.91;5065334;28;19924;-47
2022/04/15 03:48:03;;;;;;;;;;;;;;;11.65;100.00;99738.16;5062511;28;19920;-46
2022/04/15 03:50:28;;;;;;;;;;;;;;;12.06;100.00;99743.19;5064087;28;19920;-45
2022/04/15 03:52:53;;;;;;;;;;;;;;;12.02;100.00;99747.59;5063029;28;19924;-45
2022/04/15 03:55:20;;;;;;;;;;;;;;;12.24;100.00;99752.19;5064134;28;20272;-46
2022/04/15 03:57:45;;;;;;;;;;;;;;;12.11;100.00;99752.53;5067087;28;19924;-45
2022/04/15 04:00:11;;;;;;;;;;;;;;;12.50;100.00;99752.31;5064896;28;20332;-46
2022/04/15 04:02:36;;;;;;;;;;;;;;;12.07;100.00;99753.47;5063967;28;19924;-47
2022/04/15 04:05:02;;;;;;;;;;;;;;;11.97;100.00;99752.00;5065144;28;20822;-46
2022/04/15 04:07:27;;;;;;;;;;;;;;;12.37;100.00;99758.72;5066089;28;19916;-49
2022/04/15 04:09:52;;;;;;;;;;;;;;;12.52;100.00;99758.31;5063448;28;19927;-47
2022/04/15 04:12:18;;;;;;;;;;;;;;;12.10;100.00;99761.13;5062616;28;20404;-46
2022/04/15 04:14:43;;;;;;;;;;;;;;;12.10;100.00;99758.56;5066162;28;19965;-45
2022/04/15 04:17:08;;;;;;;;;;;;;;;12.03;100.00;99762.19;5063749;28;19921;-48
2022/04/15 04:19:34;;;;;;;;;;;;;;;12.05;100.00;99764.75;5061137;28;20347;-46
2022/04/15 04:21:59;;;;;;;;;;;;;;;11.31;100.00;99763.88;5060275;28;20038;-46
2022/04/15 04:24:24;;;;;;;;;;;;;;;12.20;100.00;99768.63;5065016;28;20337;-46
2022/04/15 04:26:49;;;;;;;;;;;;;;;11.88;100.00;99765.16;5062993;28;19920;-47
2022/04/15 04:29:15;;;;;;;;;;;;;;;11.64;100.00;99771.75;5066884;28;19927;-46
2022/04/15 04:31:40;;;;;;;;;;;;;;;11.85;100.00;99776.38;5063191;28;20007;-46
2022/04/15 04:34:05;;;;;;;;;;;;;;;12.64;100.00;99777.78;5064855;28;19970;-45
2022/04/15 04:36:30;;;;;;;;;;;;;;;12.35;100.00;99781.16;5062007;28;20884;-46
2022/04/15 04:38:56;;;;;;;;;;;;;;;12.60;100.00;99771.00;5064035;28;20065;-46
2022/04/15 04:41:21;;;;;;;;;;;;;;;12.82;100.00;99771.25;5061455;28;19924;-48
2022/04/15 04:43:46;;;;;;;;;;;;;;;12.79;100.00;99776.47;5063263;28;19920;-46
2022/04/15 04:46:11;;;;;;;;;;;;;;;12.03;100.00;99785.41;5064171;28;19999;-45
2022/04/15 04:48:36;;;;;;;;;;;;;;;11.70;100.00;99787.94;5060644;28;19959;-50
2022/04/15 04:51:02;;;;;;;;;;;;;;;12.14;100.00;99788.56;5061934;28;19926;-45
2022/04/15 04:53:27;;;;;;;;;;;;;;;12.12;100.00;99790.34;5057412;28;19921;-45
2022/04/15 04:55:52;;;;;;;;;;;;;;;11.89;100.00;99793.50;5061388;28;19920;-45
2022/04/15 04:58:17;;;;;;;;;;;;;;;12.40;100.00;99799.13;5061783;28;19920;-47
2022/04/15 05:00:42;;;;;;;;;;;;;;;11.71;100.00;99805.09;5062058;28;20370;-50
2022/04/15 05:03:08;;;;;;;;;;;;;;;11.45;100.00;99797.13;5060143;28;20454;-46
2022/04/15 05:05:33;;;;;;;;;;;;;;;12.74;100.00;99801.63;5066483;28;20433;-46
2022/04/15 05:07:58;;;;;;;;;;;;;;;11.68;100.00;99800.00;5062936;28;19916;-48
2022/04/15 05:10:23;;;;;;;;;;;;;;;11.46;100.00;99806.56;5063083;28;20406;-46
2022/04/15 05:12:49;;;;;;;;;;;;;;;11.95;100.00;99812.31;5061375;28;19921;-45
2022/04/15 05:15:14;;;;;;;;;;;;;;;12.07;100.00;99818.03;5062388;28;19920;-45
2022/04/15 05:17:39;;;;;;;;;;;;;;;11.93;100.00;99820.13;5063863;28;20485;-46
2022/04/15 05:20:05;;;;;;;;;;;;;;;12.06;100.00;99821.47;5060377;28;20078;-48
2022/04/15 05:22:30;;;;;;;;;;;;;;;11.27;100.00;99822.44;5060587;28;19978;-46
2022/04/15 05:24:56;;;;;;;;;;;;;;;12.53;100.00;99827.16;5062774;28;19920;-46
2022/04/15 05:27:21;;;;;;;;;;;;;;;11.92;100.00;99831.31;5060534;28;19989;-44
2022/04/15 05:29:46;;;;;;;;;;;;;;;11.38;100.00;99831.66;5057364;28;20031;-45
2022/04/15 05:32:11;;;;;;;;;;;;;;;11.24;100.00;99840.56;5061066;28;19920;-44
2022/04/15 05:34:37;;;;;;;;;;;;;;;11.81;100.00;99838.41;5065186;28;20006;-49
2022/04/15 05:37:02;;;;;;;;;;;;;;;11.72;100.00;99848.09;5062760;28;20388;-46
2022/04/15 05:39:27;;;;;;;;;;;;;;;11.54;100.00;99848.50;5064263;28;19943;-45
2022/04/15 05:41:53;;;;;;;;;;;;;;;11.19;100.00;99860.41;5061560;28;19946;-47
2022/04/15 05:44:18;;;;;;;;;;;;;;;10.96;100.00;99860.03;5059063;28;19952;-48
2022/04/15 05:46:43;;;;;;;;;;;;;;;10.93;100.00;99867.84;5062882;28;19919;-46
2022/04/15 05:49:13;;;;;;;;;;;;;;;11.05;100.00;99872.75;5064967;28;19924;-45
2022/04/15 05:51:39;;;;;;;;;;;;;;;10.69;100.00;99867.41;5061456;28;20138;-46
2022/04/15 05:54:04;;;;;;;;;;;;;;;10.30;100.00;99872.38;5057209;28;19920;-45
2022/04/15 05:56:29;;;;;;;;;;;;;;;10.53;100.00;99871.97;5062095;28;20009;-45
2022/04/15 05:58:54;;;;;;;;;;;;;;;10.40;100.00;99875.66;5060278;28;19920;-45
2022/04/15 06:01:21;;;;;;;;;;;;;;;10.60;100.00;99878.72;5059802;28;20397;-46
2022/04/15 06:04:02;;;;;;;;;;;;;;;10.15;100.00;99886.34;5055223;28;19927;-45
2022/04/15 06:06:28;;;;;;;;;;;;;;;10.27;100.00;99890.44;5042929;28;19916;-44
2022/04/15 06:08:53;;;;;;;;;;;;;;;10.71;100.00;99894.00;5063049;28;19915;-44
2022/04/15 06:11:19;;;;;;;;;;;;;;;10.46;100.00;99902.16;5059610;28;20482;-46
2022/04/15 06:13:47;;;;;;;;;;;;;;;11.08;100.00;99901.91;5056870;28;20669;-45
2022/04/15 06:16:15;;;;;;;;;;;;;;;10.91;100.00;99901.38;5058553;28;20000;-48
2022/04/15 06:18:40;;;;;;;;;;;;;;;10.43;100.00;99907.34;5060199;28;19922;-45
2022/04/15 06:21:05;;;;;;;;;;;;;;;10.79;100.00;99915.31;5063706;28;19925;-44
2022/04/15 06:23:31;;;;;;;;;;;;;;;10.49;100.00;99914.16;5060855;28;19926;-47
2022/04/15 06:25:56;;;;;;;;;;;;;;;10.73;100.00;99915.44;5060204;28;19959;-46
2022/04/15 06:28:21;;;;;;;;;;;;;;;10.27;100.00;99921.34;5061328;28;20353;-46
2022/04/15 06:30:47;;;;;;;;;;;;;;;10.59;100.00;99925.13;5061403;28;19979;-45
2022/04/15 06:33:14;;;;;;;;;;;;;;;10.57;100.00;99932.03;5059845;28;19916;-44
2022/04/15 06:35:39;;;;;;;;;;;;;;;11.78;100.00;99932.25;5059686;28;20570;-46
2022/04/15 06:38:05;;;;;;;;;;;;;;;11.35;100.00;99929.72;5062862;28;19922;-45
2022/04/15 06:40:30;;;;;;;;;;;;;;;11.86;100.00;99932.06;5060929;28;19924;-46
2022/04/15 06:42:55;;;;;;;;;;;;;;;12.38;100.00;99925.72;5060153;28;20842;-45
2022/04/15 06:45:20;;;;;;;;;;;;;;;11.18;100.00;99936.06;5060753;28;19916;-46
2022/04/15 06:47:46;;;;;;;;;;;;;;;10.75;100.00;99933.44;5061893;28;19924;-47
2022/04/15 06:50:11;;;;;;;;;;;;;;;10.81;100.00;99934.19;5062430;28;20805;-45
2022/04/15 06:52:36;;;;;;;;;;;;;;;11.72;100.00;99943.56;5059995;28;20404;-45
2022/04/15 06:55:02;;;;;;;;;;;;;;;11.38;100.00;99945.13;5057435;28;19920;-46
2022/04/15 06:57:27;;;;;;;;;;;;;;;11.20;100.00;99952.38;5056042;28;20453;-47
2022/04/15 06:59:52;;;;;;;;;;;;;;;10.89;100.00;99942.63;5061417;28;20051;-45
2022/04/15 07:02:18;;;;;;;;;;;;;;;11.81;100.00;99947.66;5066083;28;19960;-45
2022/04/15 07:04:43;;;;;;;;;;;;;;;12.21;100.00;99938.22;5064376;28;20705;-47
2022/04/15 07:07:08;;;;;;;;;;;;;;;11.60;100.00;99946.38;5063563;28;19927;-48
2022/04/15 07:09:34;;;;;;;;;;;;;;;11.47;100.00;99947.50;5065243;28;19963;-49
2022/04/15 07:11:59;;;;;;;;;;;;;;;10.60;100.00;99950.00;5065698;28;19931;-45
2022/04/15 07:14:24;;;;;;;;;;;;;;;11.10;100.00;99951.66;5063771;28;19975;-48
2022/04/15 07:16:49;;;;;;;;;;;;;;;11.13;100.00;99955.06;5066544;28;19917;-46
2022/04/15 07:19:15;;;;;;;;;;;;;;;11.49;100.00;99953.50;5064369;28;19921;-48
2022/04/15 07:21:42;;;;;;;;;;;;;;;11.42;100.00;99962.25;5064275;28;19924;-49
2022/04/15 07:24:07;;;;;;;;;;;;;;;11.17;100.00;99954.97;5068289;28;19959;-48
2022/04/15 07:26:32;;;;;;;;;;;;;;;10.64;100.00;99959.38;5065141;28;20016;-46
2022/04/15 07:28:58;;;;;;;;;;;;;;;11.26;100.00;99959.97;5061914;28;20446;-49
2022/04/15 07:31:23;;;;;;;;;;;;;;;10.81;100.00;99969.38;5064742;28;20027;-48
2022/04/15 07:33:49;;;;;;;;;;;;;;;10.85;100.00;99971.88;5064522;28;19978;-49
2022/04/15 07:38:58;;;;;;;;;;;;;;;10.91;100.00;99980.41;5067231;28;20396;-46
2022/04/15 07:41:23;;;;;;;;;;;;;;;10.51;100.00;99981.06;5063220;28;19924;-48
2022/04/15 07:43:48;;;;;;;;;;;;;;;10.83;100.00;99983.97;5062684;28;19916;-47
2022/04/15 07:46:14;;;;;;;;;;;;;;;10.65;100.00;99984.25;5061138;28;21015;-49
2022/04/15 07:48:39;;;;;;;;;;;;;;;10.56;100.00;99979.25;5067488;28;20535;-48
2022/04/15 07:51:04;;;;;;;;;;;;;;;10.35;100.00;99986.44;5065037;28;19956;-46
2022/04/15 07:53:30;;;;;;;;;;;;;;;10.73;100.00;99982.41;5063607;28;19994;-47
2022/04/15 07:55:55;;;;;;;;;;;;;;;10.64;100.00;99986.00;5060378;28;19966;-48
2022/04/15 07:58:20;;;;;;;;;;;;;;;10.34;100.00;99984.75;5060755;28;19920;-49
2022/04/15 08:00:45;;;;;;;;;;;;;;;10.72;100.00;99983.31;5064912;28;19928;-49
2022/04/15 08:03:11;;;;;;;;;;;;;;;10.08;100.00;99989.38;5065874;28;20575;-46
2022/04/15 08:05:36;;;;;;;;;;;;;;;11.07;100.00;99984.41;5063526;28;20503;-48
2022/04/15 08:08:02;;;;;;;;;;;;;;;11.30;100.00;99982.25;5058895;28;20431;-47
2022/04/15 08:10:27;;;;;;;;;;;;;;;10.61;100.00;99995.50;5064139;28;19916;-50
2022/04/15 08:12:52;;;;;;;;;;;;;;;10.47;100.00;99993.16;5062952;28;19927;-47
2022/04/15 08:15:18;;;;;;;;;;;;;;;10.57;100.00;99997.28;5064266;28;20723;-48
2022/04/15 08:17:43;;;;;;;;;;;;;;;9.96;100.00;99996.41;5065109;28;20380;-47
2022/04/15 08:20:08;;;;;;;;;;;;;;;10.54;100.00;99999.06;5060222;28;19938;-45
2022/04/15 08:22:36;;;;;;;;;;;;;;;10.87;100.00;100001.06;5061081;28;19921;-49
2022/04/15 08:25:05;;;;;;;;;;;;;;;10.74;100.00;99993.56;5065152;28;20014;-49
2022/04/15 08:27:30;;;;;;;;;;;;;;;11.30;100.00;100005.44;5067081;28;19923;-47
2022/04/15 08:29:55;;;;;;;;;;;;;;;10.50;100.00;99999.97;5063261;28;19942;-47
2022/04/15 08:32:21;;;;;;;;;;;;;;;10.83;100.00;100004.59;5064236;28;19920;-48
2022/04/15 08:34:46;;;;;;;;;;;;;;;10.93;100.00;100012.16;5064409;28;20828;-46
2022/04/15 08:37:13;;;;;;;;;;;;;;;11.10;100.00;100012.69;5063135;28;19981;-48
2022/04/15 08:39:38;;;;;;;;;;;;;;;11.61;100.00;100017.75;5066929;28;19920;-48
2022/04/15 08:42:03;;;;;;;;;;;;;;;10.85;100.00;100018.28;5065857;28;19943;-48
2022/04/15 08:44:30;;;;;;;;;;;;;;;10.99;100.00;100019.75;5060242;28;19959;-47
2022/04/15 08:46:56;;;;;;;;;;;;;;;11.27;100.00;100014.97;5064532;28;19971;-48
2022/04/15 08:49:22;;;;;;;;;;;;;;;11.28;100.00;100027.81;5063671;28;19920;-46
2022/04/15 08:51:47;;;;;;;;;;;;;;;11.22;100.00;100022.81;5065211;28;19966;-49
2022/04/15 08:54:13;;;;;;;;;;;;;;;11.63;100.00;100020.28;5061032;28;19921;-45
2022/04/15 08:56:38;;;;;;;;;;;;;;;12.13;100.00;100029.63;5066410;28;19927;-45
2022/04/15 08:59:04;;;;;;;;;;;;;;;11.32;100.00;100027.78;5065358;28;19916;-44
2022/04/15 09:01:29;;;;;;;;;;;;;;;10.86;100.00;100030.28;5064229;28;19924;-47
2022/04/15 09:03:54;;;;;;;;;;;;;;;11.33;100.00;100029.47;5063000;28;19927;-47
2022/04/15 09:06:19;;;;;;;;;;;;;;;11.43;100.00;100041.34;5061735;28;19931;-46
2022/04/15 09:08:57;;;;;;;;;;;;;;;11.12;100.00;100035.88;5063885;28;19921;-46
2022/04/15 09:11:22;;;;;;;;;;;;;;;11.03;100.00;100042.03;5066852;28;19920;-47
2022/04/15 09:13:49;;;;;;;;;;;;;;;11.21;100.00;100041.72;5064864;28;19920;-48
2022/04/15 09:16:17;;;;;;;;;;;;;;;11.34;100.00;100044.94;5061696;28;20442;-48
2022/04/15 09:18:42;;;;;;;;;;;;;;;11.33;100.00;100047.53;5065567;28;19926;-47
2022/04/15 09:21:14;;;;;;;;;;;;;;;11.67;100.00;100045.16;5065008;28;19924;-47
2022/04/15 09:23:40;;;;;;;;;;;;;;;11.71;100.00;100052.81;5066746;28;19920;-46
2022/04/15 09:26:05;;;;;;;;;;;;;;;12.80;100.00;100043.59;5065247;28;19916;-47
2022/04/15 09:28:34;;;;;;;;;;;;;;;12.29;100.00;100043.03;5067299;28;19916;-45
2022/04/15 09:30:59;;;;;;;;;;;;;;;12.30;100.00;100051.63;5066281;28;20265;-47
2022/04/15 09:33:24;;;;;;;;;;;;;;;11.96;100.00;100052.34;5063272;28;19920;-47
2022/04/15 09:35:54;;;;;;;;;;;;;;;13.59;100.00;100057.09;5061490;28;20676;-46
2022/04/15 09:38:19;;;;;;;;;;;;;;;13.76;100.00;100056.59;5062239;28;20335;-47
2022/04/15 09:40:44;;;;;;;;;;;;;;;13.58;100.00;100054.53;5065795;28;19931;-49
2022/04/15 09:43:09;;;;;;;;;;;;;;;13.53;100.00;100054.66;5062686;28;20101;-46
2022/04/15 09:45:35;;;;;;;;;;;;;;;13.82;100.00;100060.75;5059874;28;20062;-47
2022/04/15 09:48:01;;;;;;;;;;;;;;;12.64;100.00;100062.03;5064115;28;20674;-49
2022/04/15 09:50:31;;;;;;;;;;;;;;;13.57;100.00;100065.75;5061581;28;19931;-46
2022/04/15 09:53:15;;;;;;;;;;;;;;;14.71;100.00;100052.06;5062915;28;19936;-45
2022/04/15 09:55:41;;;;;;;;;;;;;;;14.20;100.00;100053.59;5059450;28;19970;-46
2022/04/15 09:58:09;;;;;;;;;;;;;;;13.53;100.00;100059.81;5060517;28;19924;-49
2022/04/15 10:00:36;;;;;;;;;;;;;;;14.05;100.00;100052.34;5062080;28;19931;-48
2022/04/15 10:03:03;;;;;;;;;;;;;;;13.86;100.00;100053.75;5060280;28;19924;-47
2022/04/15 10:05:30;;;;;;;;;;;;;;;13.61;100.00;100051.84;5056578;28;20212;-47
2022/04/15 10:07:55;;;;;;;;;;;;;;;12.48;100.00;100058.97;5058872;28;20444;-47
2022/04/15 10:10:20;;;;;;;;;;;;;;;13.36;100.00;100059.41;5061018;28;20407;-46
2022/04/15 10:12:45;;;;;;;;;;;;;;;13.23;100.00;100056.28;5043312;28;19920;-50
2022/04/15 10:15:11;;;;;;;;;;;;;;;14.61;100.00;100049.75;5066598;28;19977;-50
2022/04/15 10:17:37;;;;;;;;;;;;;;;14.50;100.00;100048.38;5062463;28;20500;-49
2022/04/15 10:20:02;;;;;;;;;;;;;;;14.77;100.00;100042.34;5058718;28;19920;-49
2022/04/15 10:22:27;;;;;;;;;;;;;;;15.73;100.00;100045.13;5062872;28;19955;-49
2022/04/15 10:24:53;;;;;;;;;;;;;;;14.56;100.00;100043.03;5058436;28;19950;-46
2022/04/15 10:27:23;;;;;;;;;;;;;;;14.36;100.00;100043.63;5063070;28;19916;-48
2022/04/15 10:30:08;;;;;;;;;;;;;;;14.64;100.00;100039.31;5062551;28;20592;-49
2022/04/15 10:32:50;;;;;;;;;;;;;;;15.38;100.00;100039.44;5056248;28;19953;-46
2022/04/15 10:35:18;;;;;;;;;;;;;;;14.74;100.00;100037.28;5058975;28;20400;-48
2022/04/15 10:37:58;;;;;;;;;;;;;;;14.81;100.00;100037.91;5061588;28;20034;-47
2022/04/15 10:40:23;;;;;;;;;;;;;;;13.50;100.00;100046.09;5062684;28;20419;-49
2022/04/15 10:42:48;;;;;;;;;;;;;;;15.00;100.00;100039.00;5062980;28;19921;-46
2022/04/15 10:45:29;;;;;;;;;;;;;;;15.63;100.00;100034.22;5064188;28;19917;-50
2022/04/15 10:48:01;;;;;;;;;;;;;;;16.08;100.00;100024.81;5060770;28;20018;-46
2022/04/15 10:50:30;;;;;;;;;;;;;;;16.10;100.00;100025.56;5062820;28;19924;-47
2022/04/15 10:53:16;;;;;;;;;;;;;;;16.79;100.00;100022.88;5059271;28;19928;-46
2022/04/15 10:55:43;;;;;;;;;;;;;;;15.71;100.00;100031.34;5060981;28;19920;-45
2022/04/15 10:58:12;;;;;;;;;;;;;;;16.20;100.00;100026.09;5065162;28;19931;-47
2022/04/15 11:03:22;;;;;;;;;;;;;;;15.98;100.00;100029.47;5050828;28;20828;-45
2022/04/15 11:05:49;;;;;;;;;;;;;;;15.41;100.00;100034.13;5056323;28;20002;-46
2022/04/15 11:08:15;;;;;;;;;;;;;;;15.65;100.00;100034.16;5059716;28;19920;-47
2022/04/15 11:10:58;;;;;;;;;;;;;;;16.39;100.00;100032.25;5059615;28;19920;-47
2022/04/15 11:13:33;;;;;;;;;;;;;;;14.97;100.00;100039.09;5053453;28;19920;-46
2022/04/15 11:16:01;;;;;;;;;;;;;;;14.09;100.00;100048.75;5059439;28;19925;-45
2022/04/15 11:18:55;;;;;;;;;;;;;;;13.98;100.00;100061.16;5057208;28;19931;-45
2022/04/15 11:21:21;;;;;;;;;;;;;;;14.45;100.00;100051.13;5062039;28;20505;-49
2022/04/15 11:23:47;;;;;;;;;;;;;;;15.47;100.00;100043.47;5057285;28;19924;-49
2022/04/15 11:26:13;;;;;;;;;;;;;;;14.90;100.00;100045.41;5060634;28;20296;-49
2022/04/15 11:28:39;;;;;;;;;;;;;;;15.58;100.00;100051.72;5061378;28;19924;-47
2022/04/15 11:31:17;;;;;;;;;;;;;;;16.21;100.00;100045.97;5058174;28;19927;-47
2022/04/15 11:33:42;;;;;;;;;;;;;;;14.82;100.00;100052.56;5056970;28;19920;-49
2022/04/15 11:36:07;;;;;;;;;;;;;;;15.55;100.00;100050.97;5058728;28;19962;-49
2022/04/15 11:38:33;;;;;;;;;;;;;;;16.26;100.00;100044.03;5061119;28;20078;-48
2022/04/15 11:40:58;;;;;;;;;;;;;;;14.88;100.00;100044.59;5062117;28;19931;-46
2022/04/15 11:43:24;;;;;;;;;;;;;;;14.13;100.00;100054.69;5061674;28;19920;-46
2022/04/15 11:45:50;;;;;;;;;;;;;;;14.15;100.00;100055.50;5060917;28;20433;-49
2022/04/15 11:48:19;;;;;;;;;;;;;;;14.55;100.00;100049.97;5064480;28;19931;-49
2022/04/15 11:50:45;;;;;;;;;;;;;;;13.97;100.00;100055.13;5061837;28;19927;-48
2022/04/15 11:53:11;;;;;;;;;;;;;;;14.76;100.00;100055.38;5064382;28;19916;-48
2022/04/15 11:55:46;;;;;;;;;;;;;;;16.14;100.00;100045.34;5064055;28;19931;-48
2022/04/15 11:58:11;;;;;;;;;;;;;;;14.90;100.00;100040.22;5063098;28;19927;-49
2022/04/15 12:00:36;;;;;;;;;;;;;;;16.14;100.00;100039.31;5062818;28;20309;-48
2022/04/15 12:03:03;;;;;;;;;;;;;;;16.64;100.00;100029.50;5064069;28;20005;-45
2022/04/15 12:05:28;;;;;;;;;;;;;;;17.26;100.00;100033.03;5061706;28;20062;-49
2022/04/15 12:07:53;;;;;;;;;;;;;;;17.35;100.00;100029.19;5063220;28;20019;-47
2022/04/15 12:10:19;;;;;;;;;;;;;;;14.17;100.00;100049.38;5058482;28;19924;-47
2022/04/15 12:12:44;;;;;;;;;;;;;;;14.33;100.00;100054.09;5059182;28;19920;-48
2022/04/15 12:15:12;;;;;;;;;;;;;;;16.20;100.00;100047.72;5064772;28;19928;-49
2022/04/15 12:17:37;;;;;;;;;;;;;;;15.02;100.00;100051.91;5066423;28;20028;-48
2022/04/15 12:20:03;;;;;;;;;;;;;;;15.91;100.00;100047.97;5063119;28;19920;-50
2022/04/15 12:22:28;;;;;;;;;;;;;;;17.66;100.00;100040.88;5062580;28;19982;-48
2022/04/15 12:25:11;;;;;;;;;;;;;;;15.99;100.00;100035.56;5066516;28;19923;-47
2022/04/15 12:27:37;;;;;;;;;;;;;;;15.68;100.00;100044.44;5065209;28;19921;-45
2022/04/15 12:30:03;;;;;;;;;;;;;;;15.01;100.00;100051.06;5063243;28;19921;-47
2022/04/15 12:32:35;;;;;;;;;;;;;;;14.88;100.00;100049.78;5046076;28;19952;-36
2022/04/15 12:35:00;;;;;;;;;;;;;;;17.35;100.00;100039.59;5063641;28;20460;-35